Time;durP1;ratioP1;P1;durP2;ratioP2;P2;SDS_P1;SDS_P2;PMS_P1;PMS_P2;Temp;Humidity;BMP_temperature;BMP_pressure;BME280_temperature;BME280_humidity;BME280_pressure;Samples;Min_cycle;Max_cycle;Signal;HPM_P1;HPM_P2
2022/06/01 00:02:10;;;;;;;0.10;0.10;;;12.60;81.80;;;;;;5029575;28;20067;-68
2022/06/01 00:04:36;;;;;;;0.00;0.00;;;12.60;81.80;;;;;;5029614;28;20038;-67
2022/06/01 00:07:02;;;;;;;0.00;0.00;;;12.60;81.70;;;;;;5029956;28;20080;-68
2022/06/01 00:09:27;;;;;;;0.00;0.00;;;12.60;81.80;;;;;;5023947;28;20050;-68
2022/06/01 00:11:53;;;;;;;0.00;0.00;;;12.60;81.80;;;;;;5029818;28;20533;-68
2022/06/01 00:14:18;;;;;;;0.00;0.00;;;12.60;82.00;;;;;;5029374;28;20049;-68
2022/06/01 00:16:45;;;;;;;0.00;0.00;;;12.60;81.80;;;;;;5029394;28;20048;-68
2022/06/01 00:19:12;;;;;;;0.00;0.00;;;12.60;81.70;;;;;;5029530;28;20414;-68
2022/06/01 00:22:11;;;;;;;0.00;0.00;;;12.60;82.00;;;;;;5029624;28;20073;-68
2022/06/01 00:24:24;;;;;;;0.00;0.00;;;12.60;82.00;;;;;;5029235;28;20053;-68
2022/06/01 00:26:50;;;;;;;0.00;0.00;;;12.60;82.00;;;;;;5029372;28;20188;-68
2022/06/01 00:29:16;;;;;;;0.00;0.00;;;12.50;82.60;;;;;;5028283;28;20494;-68
2022/06/01 00:31:42;;;;;;;0.00;0.00;;;12.40;82.90;;;;;;5017097;28;20077;-68
2022/06/01 00:34:07;;;;;;;0.10;0.10;;;12.30;83.00;;;;;;5024589;28;20072;-68
2022/06/01 00:36:33;;;;;;;0.00;0.00;;;12.20;83.40;;;;;;5029288;28;20041;-67
2022/06/01 00:38:59;;;;;;;0.00;0.00;;;12.20;83.60;;;;;;5025406;28;20042;-67
2022/06/01 00:41:24;;;;;;;0.00;0.00;;;12.20;83.50;;;;;;5009737;28;20504;-67
2022/06/01 00:43:50;;;;;;;0.00;0.00;;;12.10;83.70;;;;;;5009802;28;20046;-67
2022/06/01 00:46:16;;;;;;;0.00;0.00;;;12.20;83.60;;;;;;5009948;28;20045;-67
2022/06/01 00:48:46;;;;;;;0.00;0.00;;;12.20;83.60;;;;;;5015499;28;20041;-67
2022/06/01 00:51:14;;;;;;;0.00;0.00;;;12.20;83.60;;;;;;5028957;28;20240;-67
2022/06/01 00:53:43;;;;;;;0.00;0.00;;;12.20;83.50;;;;;;5025785;28;20172;-68
2022/06/01 00:56:14;;;;;;;0.00;0.00;;;12.10;83.50;;;;;;5028003;28;20045;-68
2022/06/01 00:58:43;;;;;;;0.00;0.00;;;12.20;83.50;;;;;;5028819;28;20029;-67
2022/06/01 01:01:16;;;;;;;0.00;0.00;;;12.10;83.20;;;;;;5028856;28;20103;-67
2022/06/01 01:03:43;;;;;;;0.00;0.00;;;12.20;83.00;;;;;;5027481;28;20038;-68
2022/06/01 01:06:17;;;;;;;0.00;0.00;;;12.10;82.90;;;;;;5029128;28;20664;-68
2022/06/01 01:08:46;;;;;;;0.00;0.00;;;12.20;83.00;;;;;;5028346;28;20268;-68
2022/06/01 01:11:13;;;;;;;0.00;0.00;;;12.20;83.10;;;;;;5028605;28;20049;-68
2022/06/01 01:13:45;;;;;;;0.08;0.08;;;12.20;83.00;;;;;;5028943;28;20682;-69
2022/06/01 01:16:12;;;;;;;0.00;0.00;;;12.20;82.90;;;;;;5028370;28;20048;-69
2022/06/01 01:18:41;;;;;;;0.00;0.00;;;12.20;83.00;;;;;;5017910;28;20045;-68
2022/06/01 01:21:33;;;;;;;0.00;0.00;;;12.20;82.90;;;;;;5028574;28;20090;-69
2022/06/01 01:24:09;;;;;;;0.00;0.00;;;12.20;82.80;;;;;;5028835;28;20045;-68
2022/06/01 01:26:36;;;;;;;0.00;0.00;;;12.20;82.80;;;;;;5028096;28;20057;-68
2022/06/01 01:29:09;;;;;;;0.00;0.00;;;12.20;82.70;;;;;;5028464;28;20048;-68
2022/06/01 01:31:35;;;;;;;0.00;0.00;;;12.20;82.70;;;;;;5029440;28;20073;-69
2022/06/01 01:34:01;;;;;;;0.00;0.00;;;12.20;82.80;;;;;;5027122;28;20521;-68
2022/06/01 01:36:34;;;;;;;0.00;0.00;;;12.20;82.70;;;;;;5028688;28;20073;-68
2022/06/01 01:39:07;;;;;;;0.00;0.00;;;12.10;82.80;;;;;;5028616;28;20053;-69
2022/06/01 01:41:48;;;;;;;0.00;0.00;;;12.20;82.80;;;;;;5028205;28;20048;-69
2022/06/01 01:44:25;;;;;;;0.00;0.00;;;12.10;82.80;;;;;;5040582;28;20045;-69
2022/06/01 01:46:51;;;;;;;0.00;0.00;;;12.20;82.80;;;;;;5020898;28;20622;-69
2022/06/01 01:49:21;;;;;;;0.00;0.00;;;12.10;82.80;;;;;;5028621;28;20071;-68
2022/06/01 01:51:47;;;;;;;0.00;0.00;;;12.10;82.90;;;;;;5027455;28;20084;-69
2022/06/01 01:54:31;;;;;;;0.00;0.00;;;12.20;82.90;;;;;;5013645;28;20742;-68
2022/06/01 01:57:24;;;;;;;0.00;0.00;;;12.10;82.80;;;;;;5028434;28;20543;-68
2022/06/01 02:00:03;;;;;;;0.00;0.00;;;12.10;82.80;;;;;;5023734;28;20490;-69
2022/06/01 02:02:55;;;;;;;0.00;0.00;;;12.10;82.70;;;;;;5027495;28;20046;-69
2022/06/01 02:08:28;;;;;;;0.00;0.00;;;12.10;82.60;;;;;;5028054;28;20049;-69
2022/06/01 02:13:55;;;;;;;0.00;0.00;;;12.00;82.70;;;;;;5028716;28;21114;-68
2022/06/01 02:16:24;;;;;;;0.00;0.00;;;12.00;82.50;;;;;;5032144;28;20060;-69
2022/06/01 02:18:53;;;;;;;0.03;0.03;;;11.90;82.60;;;;;;5027891;28;20049;-68
2022/06/01 02:21:22;;;;;;;0.00;0.00;;;11.90;82.60;;;;;;5031093;28;20050;-68
2022/06/01 02:23:49;;;;;;;0.00;0.00;;;11.80;82.60;;;;;;5027307;28;20101;-68
2022/06/01 02:26:15;;;;;;;0.00;0.00;;;11.80;82.70;;;;;;5031472;28;20510;-68
2022/06/01 02:28:43;;;;;;;0.00;0.00;;;11.80;82.60;;;;;;5030132;28;20030;-68
2022/06/01 02:31:10;;;;;;;0.00;0.00;;;11.80;82.80;;;;;;5021095;28;20049;-68
2022/06/01 02:33:38;;;;;;;0.00;0.00;;;11.80;82.80;;;;;;5032161;28;20049;-68
2022/06/01 02:36:07;;;;;;;0.00;0.00;;;11.80;82.80;;;;;;5031775;28;20095;-68
2022/06/01 02:38:53;;;;;;;0.00;0.00;;;11.80;82.80;;;;;;5031271;28;20073;-68
2022/06/01 02:44:19;;;;;;;0.00;0.00;;;11.80;82.80;;;;;;5028664;28;20076;-68
2022/06/01 02:46:45;;;;;;;0.00;0.00;;;11.80;83.00;;;;;;5019753;28;20530;-68
2022/06/01 02:49:11;;;;;;;0.00;0.00;;;11.80;82.90;;;;;;5022356;28;20124;-68
2022/06/01 02:51:37;;;;;;;0.00;0.00;;;11.80;82.80;;;;;;5031606;28;20132;-68
2022/06/01 02:54:03;;;;;;;0.00;0.00;;;11.80;82.80;;;;;;5020945;28;20186;-67
2022/06/01 02:56:28;;;;;;;0.00;0.00;;;11.80;82.80;;;;;;5045988;28;20395;-68
2022/06/01 02:58:54;;;;;;;0.00;0.00;;;11.80;82.70;;;;;;5022471;28;20041;-68
2022/06/01 03:01:20;;;;;;;0.00;0.00;;;11.90;82.60;;;;;;5030662;28;20240;-68
2022/06/01 03:03:47;;;;;;;0.00;0.00;;;11.90;82.60;;;;;;5045047;28;20191;-68
2022/06/01 03:06:13;;;;;;;0.00;0.00;;;11.90;82.80;;;;;;5031128;28;20041;-68
2022/06/01 03:08:39;;;;;;;0.00;0.00;;;12.00;82.80;;;;;;5021341;28;20560;-68
2022/06/01 03:11:05;;;;;;;0.00;0.00;;;12.00;82.70;;;;;;5018693;28;20046;-68
2022/06/01 03:13:30;;;;;;;0.00;0.00;;;12.00;83.00;;;;;;5034019;28;20052;-68
2022/06/01 03:15:56;;;;;;;0.00;0.00;;;12.00;83.00;;;;;;5044330;28;20038;-68
2022/06/01 03:18:22;;;;;;;0.00;0.00;;;12.00;83.10;;;;;;5019537;28;20183;-69
2022/06/01 03:20:47;;;;;;;0.03;0.03;;;12.00;83.00;;;;;;5027005;28;20045;-68
2022/06/01 03:23:13;;;;;;;0.00;0.00;;;12.00;83.00;;;;;;5030877;28;20389;-68
2022/06/01 03:25:39;;;;;;;0.00;0.00;;;12.00;82.80;;;;;;5023544;28;20065;-68
2022/06/01 03:28:06;;;;;;;0.00;0.00;;;12.00;82.80;;;;;;5024592;28;20638;-67
2022/06/01 03:30:33;;;;;;;0.00;0.00;;;12.00;83.20;;;;;;5029561;28;20049;-68
2022/06/01 03:32:59;;;;;;;0.00;0.00;;;12.00;83.30;;;;;;5017344;28;20083;-68
2022/06/01 03:35:29;;;;;;;0.00;0.00;;;11.90;83.20;;;;;;5028269;28;20037;-68
2022/06/01 03:37:57;;;;;;;0.10;0.10;;;11.90;83.30;;;;;;5025006;28;20450;-68
2022/06/01 03:40:23;;;;;;;0.08;0.08;;;11.90;83.50;;;;;;5019673;28;20053;-68
2022/06/01 03:42:49;;;;;;;0.00;0.00;;;11.90;83.60;;;;;;5024270;28;20065;-68
2022/06/01 03:47:59;;;;;;;0.00;0.00;;;11.80;83.70;;;;;;5031416;28;20053;-68
2022/06/01 03:50:26;;;;;;;0.03;0.03;;;11.80;83.60;;;;;;5026766;28;20057;-68
2022/06/01 03:52:52;;;;;;;0.00;0.00;;;11.80;83.50;;;;;;5025446;28;20120;-68
2022/06/01 03:55:18;;;;;;;0.00;0.00;;;11.90;83.60;;;;;;5022541;28;20513;-68
2022/06/01 03:57:44;;;;;;;0.00;0.00;;;11.90;83.50;;;;;;5028540;28;20038;-68
2022/06/01 04:00:15;;;;;;;0.13;0.13;;;11.90;83.20;;;;;;5024594;28;20045;-68
2022/06/01 04:02:41;;;;;;;0.00;0.00;;;11.90;83.20;;;;;;5025942;28;20498;-68
2022/06/01 04:05:08;;;;;;;0.00;0.00;;;11.90;83.30;;;;;;5024797;28;20052;-68
2022/06/01 04:07:34;;;;;;;0.00;0.00;;;11.90;83.20;;;;;;5030342;28;20054;-68
2022/06/01 04:10:00;;;;;;;0.00;0.00;;;12.00;83.20;;;;;;5029737;28;20096;-68
2022/06/01 04:12:26;;;;;;;0.00;0.00;;;12.00;83.10;;;;;;5029182;28;20091;-68
2022/06/01 04:14:52;;;;;;;0.20;0.20;;;12.00;83.00;;;;;;5011962;28;20045;-68
2022/06/01 04:17:17;;;;;;;0.00;0.00;;;12.00;82.80;;;;;;5021580;28;20060;-68
2022/06/01 04:19:43;;;;;;;0.00;0.00;;;12.00;82.80;;;;;;5027297;28;20763;-68
2022/06/01 04:22:11;;;;;;;0.20;0.20;;;12.00;83.00;;;;;;5029136;28;20766;-68
2022/06/01 04:24:37;;;;;;;0.00;0.00;;;12.00;82.90;;;;;;5022095;28;20121;-68
2022/06/01 04:27:03;;;;;;;0.00;0.00;;;12.00;82.90;;;;;;5020368;28;20132;-68
2022/06/01 04:29:28;;;;;;;0.00;0.00;;;12.10;83.00;;;;;;5028447;28;20040;-68
2022/06/01 04:32:01;;;;;;;0.00;0.00;;;12.00;83.00;;;;;;5028602;28;20072;-68
2022/06/01 04:34:27;;;;;;;0.00;0.00;;;12.00;82.80;;;;;;5028685;28;20049;-69
2022/06/01 04:36:54;;;;;;;0.00;0.00;;;12.00;82.80;;;;;;5027943;28;20042;-67
2022/06/01 04:39:23;;;;;;;0.00;0.00;;;12.00;82.80;;;;;;5026809;28;20053;-68
2022/06/01 04:41:50;;;;;;;0.00;0.00;;;12.00;82.80;;;;;;5025152;28;20406;-68
2022/06/01 04:44:16;;;;;;;0.00;0.00;;;12.00;83.20;;;;;;5024443;28;20054;-68
2022/06/01 04:46:42;;;;;;;0.08;0.08;;;11.90;83.40;;;;;;5028957;28;20551;-67
2022/06/01 04:49:08;;;;;;;0.05;0.05;;;11.90;83.50;;;;;;5028913;28;20048;-68
2022/06/01 04:51:34;;;;;;;0.10;0.10;;;11.90;83.90;;;;;;5026595;28;20427;-67
2022/06/01 04:54:00;;;;;;;0.00;0.00;;;11.80;84.40;;;;;;5033590;28;20041;-67
2022/06/01 04:56:26;;;;;;;0.10;0.10;;;11.80;84.50;;;;;;5016217;28;20037;-67
2022/06/01 04:58:51;;;;;;;0.10;0.10;;;11.80;84.80;;;;;;5027117;28;20407;-67
2022/06/01 05:01:17;;;;;;;0.00;0.00;;;11.70;85.30;;;;;;5016924;28;20089;-67
2022/06/01 05:03:43;;;;;;;0.00;0.00;;;11.70;85.80;;;;;;5023523;28;20049;-67
2022/06/01 05:06:08;;;;;;;0.00;0.00;;;11.70;85.70;;;;;;5028622;28;20033;-67
2022/06/01 05:08:34;;;;;;;0.00;0.00;;;11.70;85.80;;;;;;5024365;28;20183;-67
2022/06/01 05:11:00;;;;;;;0.73;0.73;;;11.70;85.80;;;;;;5022997;28;20037;-67
2022/06/01 05:13:25;;;;;;;0.00;0.00;;;11.70;85.80;;;;;;5037770;28;20649;-68
2022/06/01 05:15:59;;;;;;;0.32;0.32;;;11.80;85.80;;;;;;5028729;28;20045;-68
2022/06/01 05:18:25;;;;;;;0.00;0.00;;;11.90;85.80;;;;;;5025613;28;20038;-68
2022/06/01 05:20:53;;;;;;;0.10;0.10;;;11.90;85.60;;;;;;5028228;28;20048;-68
2022/06/01 05:23:19;;;;;;;0.00;0.00;;;12.00;85.60;;;;;;5018589;28;20107;-68
2022/06/01 05:25:47;;;;;;;0.00;0.00;;;12.10;85.40;;;;;;5026162;28;20418;-67
2022/06/01 05:28:17;;;;;;;0.00;0.00;;;12.10;85.30;;;;;;5015888;28;20507;-67
2022/06/01 05:30:43;;;;;;;0.03;0.03;;;12.20;85.10;;;;;;5022989;28;20502;-67
2022/06/01 05:33:08;;;;;;;0.00;0.00;;;12.30;84.90;;;;;;5019673;28;20041;-67
2022/06/01 05:35:35;;;;;;;0.00;0.00;;;12.30;84.90;;;;;;5026653;28;20049;-68
2022/06/01 05:38:01;;;;;;;0.00;0.00;;;12.40;84.80;;;;;;5018801;28;20091;-68
2022/06/01 05:40:30;;;;;;;0.00;0.00;;;12.50;84.60;;;;;;5023185;28;20596;-68
2022/06/01 05:42:59;;;;;;;0.20;0.20;;;12.60;84.40;;;;;;5024619;28;20046;-69
2022/06/01 05:45:25;;;;;;;0.00;0.00;;;12.50;84.20;;;;;;5011951;28;20395;-69
2022/06/01 05:47:50;;;;;;;0.00;0.00;;;12.50;83.40;;;;;;5020613;28;20046;-69
2022/06/01 05:50:16;;;;;;;0.00;0.00;;;12.50;83.40;;;;;;5026862;28;20037;-69
2022/06/01 05:52:42;;;;;;;0.00;0.00;;;12.40;83.00;;;;;;5025188;28;20506;-69
2022/06/01 05:55:10;;;;;;;0.00;0.00;;;12.40;82.60;;;;;;5019584;28;20042;-69
2022/06/01 05:57:36;;;;;;;0.00;0.00;;;12.40;82.50;;;;;;5046518;28;20038;-68
2022/06/01 06:00:06;;;;;;;0.00;0.00;;;12.50;82.20;;;;;;5028779;28;20060;-68
2022/06/01 06:02:32;;;;;;;0.00;0.00;;;12.50;82.10;;;;;;5029198;28;20038;-68
2022/06/01 06:04:57;;;;;;;0.00;0.00;;;12.50;81.70;;;;;;5030512;28;20048;-66
2022/06/01 06:07:23;;;;;;;0.00;0.00;;;12.50;81.60;;;;;;5032210;28;20037;-67
2022/06/01 06:09:48;;;;;;;0.00;0.00;;;12.60;81.20;;;;;;5031341;28;20053;-67
2022/06/01 06:12:14;;;;;;;0.00;0.00;;;12.60;81.00;;;;;;5031288;28;20057;-67
2022/06/01 06:14:40;;;;;;;0.00;0.00;;;12.60;80.80;;;;;;5031291;28;20116;-67
2022/06/01 06:17:06;;;;;;;0.00;0.00;;;12.60;80.80;;;;;;5029866;28;20057;-67
2022/06/01 06:19:31;;;;;;;0.00;0.00;;;12.60;80.70;;;;;;5030551;28;20041;-67
2022/06/01 06:21:57;;;;;;;0.00;0.00;;;12.70;80.60;;;;;;5029836;28;20048;-67
2022/06/01 06:24:23;;;;;;;0.00;0.00;;;12.70;80.20;;;;;;5029550;28;20041;-67
2022/06/01 06:26:48;;;;;;;0.00;0.00;;;12.70;80.40;;;;;;5029697;28;20137;-67
2022/06/01 06:29:17;;;;;;;0.40;0.30;;;12.70;80.30;;;;;;5029083;28;20064;-67
2022/06/01 06:31:43;;;;;;;0.00;0.00;;;12.70;80.30;;;;;;5012291;28;20045;-66
2022/06/01 06:34:09;;;;;;;0.00;0.00;;;12.70;80.20;;;;;;5020483;28;20532;-67
2022/06/01 06:36:34;;;;;;;0.00;0.00;;;12.70;80.00;;;;;;5031427;28;20095;-66
2022/06/01 06:39:00;;;;;;;0.00;0.00;;;12.70;80.00;;;;;;5031114;28;20076;-66
2022/06/01 06:41:26;;;;;;;0.10;0.10;;;12.70;80.00;;;;;;5031140;28;20037;-67
2022/06/01 06:43:52;;;;;;;0.00;0.00;;;12.70;80.00;;;;;;5031380;28;20037;-67
2022/06/01 06:46:20;;;;;;;0.00;0.00;;;12.70;80.20;;;;;;5031422;28;20049;-67
2022/06/01 06:48:48;;;;;;;1.67;1.55;;;12.70;80.30;;;;;;5018167;28;20045;-67
2022/06/01 06:51:15;;;;;;;0.00;0.00;;;12.70;80.30;;;;;;5026207;28;21060;-65
2022/06/01 06:53:40;;;;;;;0.10;0.10;;;12.70;80.20;;;;;;5030622;28;20041;-66
2022/06/01 06:56:06;;;;;;;0.00;0.00;;;12.80;80.00;;;;;;5045482;28;20417;-67
2022/06/01 06:58:32;;;;;;;0.00;0.00;;;12.80;80.10;;;;;;5030363;28;20052;-67
2022/06/01 07:00:58;;;;;;;0.00;0.00;;;12.80;80.30;;;;;;5028153;28;21686;-65
2022/06/01 07:03:24;;;;;;;0.10;0.10;;;12.80;80.80;;;;;;5028235;28;20124;-66
2022/06/01 07:08:34;;;;;;;0.00;0.00;;;12.90;80.80;;;;;;5018376;28;20136;-65
2022/06/01 07:11:00;;;;;;;0.00;0.00;;;13.00;80.90;;;;;;5011567;28;20204;-65
2022/06/01 07:13:27;;;;;;;0.00;0.00;;;13.10;81.00;;;;;;5011875;28;20053;-65
2022/06/01 07:16:05;;;;;;;0.00;0.00;;;13.10;81.10;;;;;;5028499;28;20517;-66
2022/06/01 07:18:30;;;;;;;0.00;0.00;;;13.30;81.60;;;;;;5030844;28;20533;-66
2022/06/01 07:20:58;;;;;;;0.00;0.00;;;13.30;81.30;;;;;;5030777;28;20038;-66
2022/06/01 07:23:25;;;;;;;0.00;0.00;;;13.30;81.10;;;;;;5031219;28;20075;-67
2022/06/01 07:25:52;;;;;;;0.00;0.00;;;13.30;81.10;;;;;;5029922;28;20038;-66
2022/06/01 07:28:19;;;;;;;0.00;0.00;;;13.40;80.80;;;;;;5030088;28;20045;-66
2022/06/01 07:30:45;;;;;;;0.00;0.00;;;13.50;80.20;;;;;;5030967;28;20037;-66
2022/06/01 07:33:11;;;;;;;0.00;0.00;;;13.60;79.90;;;;;;5030093;28;20049;-66
2022/06/01 07:35:37;;;;;;;0.00;0.00;;;13.70;80.00;;;;;;5030633;28;20163;-66
2022/06/01 07:43:31;;;;;;;0.00;0.00;;;13.80;78.50;;;;;;5019662;28;20054;-67
2022/06/01 07:45:57;;;;;;;0.00;0.00;;;13.90;78.20;;;;;;5026463;28;20815;-66
2022/06/01 07:48:22;;;;;;;0.00;0.00;;;14.00;78.20;;;;;;5030873;28;20056;-66
2022/06/01 07:50:50;;;;;;;0.00;0.00;;;14.00;76.80;;;;;;5029578;28;20038;-67
2022/06/01 07:53:16;;;;;;;0.00;0.00;;;13.90;75.60;;;;;;5030812;28;20049;-67
2022/06/01 07:55:42;;;;;;;0.00;0.00;;;14.00;76.10;;;;;;5030444;28;20092;-67
2022/06/01 07:58:09;;;;;;;0.00;0.00;;;14.00;75.30;;;;;;5030095;28;20387;-66
2022/06/01 08:00:35;;;;;;;0.00;0.00;;;14.10;75.60;;;;;;5033742;28;20085;-67
2022/06/01 08:03:01;;;;;;;0.00;0.00;;;14.10;75.00;;;;;;5010393;28;20046;-66
2022/06/01 08:05:27;;;;;;;0.00;0.00;;;14.30;75.50;;;;;;5018420;28;20045;-67
2022/06/01 08:07:53;;;;;;;0.00;0.00;;;14.30;74.90;;;;;;5029776;28;20533;-67
2022/06/01 08:10:20;;;;;;;0.00;0.00;;;14.40;75.30;;;;;;5030149;28;20104;-67
2022/06/01 08:15:31;;;;;;;0.00;0.00;;;14.50;74.30;;;;;;5027860;28;20080;-67
2022/06/01 08:17:57;;;;;;;0.00;0.00;;;14.40;73.00;;;;;;5029260;28;20079;-66
2022/06/01 08:20:26;;;;;;;0.00;0.00;;;14.40;73.40;;;;;;5029269;28;20160;-66
2022/06/01 08:22:53;;;;;;;0.00;0.00;;;14.40;73.00;;;;;;5029943;28;20044;-66
2022/06/01 08:25:20;;;;;;;0.00;0.00;;;14.50;73.20;;;;;;5029595;28;20045;-66
2022/06/01 08:27:47;;;;;;;0.00;0.00;;;14.50;73.20;;;;;;5028031;28;20049;-66
2022/06/01 08:30:14;;;;;;;0.00;0.00;;;14.50;72.30;;;;;;5029324;28;20049;-65
2022/06/01 08:32:41;;;;;;;0.00;0.00;;;14.50;72.90;;;;;;5033336;28;20042;-65
2022/06/01 08:35:08;;;;;;;0.00;0.00;;;14.50;72.80;;;;;;5009938;28;20128;-66
2022/06/01 08:37:34;;;;;;;0.00;0.00;;;14.60;73.30;;;;;;5041194;28;20509;-65
2022/06/01 08:39:59;;;;;;;0.00;0.00;;;14.70;73.00;;;;;;5009933;28;20038;-66
2022/06/01 08:42:27;;;;;;;0.00;0.00;;;14.60;71.80;;;;;;5017579;28;20076;-66
2022/06/01 08:44:58;;;;;;;0.00;0.00;;;14.80;72.70;;;;;;5029352;28;20494;-66
2022/06/01 08:47:30;;;;;;;0.00;0.00;;;14.80;72.30;;;;;;5029109;28;20059;-66
2022/06/01 08:49:59;;;;;;;0.05;0.05;;;14.90;71.80;;;;;;5029362;28;20049;-65
2022/06/01 08:52:28;;;;;;;0.00;0.00;;;14.80;71.70;;;;;;5021584;28;20046;-65
2022/06/01 08:54:54;;;;;;;0.00;0.00;;;14.80;71.40;;;;;;5009840;28;20053;-65
2022/06/01 08:57:28;;;;;;;0.00;0.00;;;14.70;71.20;;;;;;5010031;28;20444;-65
2022/06/01 08:59:56;;;;;;;0.00;0.00;;;14.70;71.80;;;;;;5009965;28;20103;-65
2022/06/01 09:02:55;;;;;;;0.00;0.00;;;14.70;71.60;;;;;;5028442;28;20046;-66
2022/06/01 09:05:27;;;;;;;5.15;1.13;;;14.60;71.70;;;;;;5029220;28;20052;-65
2022/06/01 09:08:12;;;;;;;0.00;0.00;;;14.40;72.10;;;;;;5029504;28;20068;-66
2022/06/01 09:11:01;;;;;;;0.00;0.00;;;14.30;74.20;;;;;;5029301;28;20137;-66
2022/06/01 09:13:52;;;;;;;0.05;0.05;;;14.10;75.70;;;;;;5044680;28;20073;-66
2022/06/01 09:16:25;;;;;;;0.00;0.00;;;14.00;76.40;;;;;;5028702;28;20057;-67
2022/06/01 09:18:54;;;;;;;0.00;0.00;;;13.80;78.30;;;;;;5029138;28;20405;-66
2022/06/01 09:24:10;;;;;;;0.00;0.00;;;13.60;77.50;;;;;;5027892;28;20049;-67
2022/06/01 09:26:53;;;;;;;0.00;0.00;;;13.60;77.00;;;;;;5029000;28;20045;-66
2022/06/01 09:29:23;;;;;;;0.00;0.00;;;13.50;76.30;;;;;;5029161;28;20049;-66
2022/06/01 09:31:56;;;;;;;0.00;0.00;;;13.40;76.60;;;;;;5029209;28;20053;-67
2022/06/01 09:34:44;;;;;;;0.00;0.00;;;13.50;77.70;;;;;;5028799;28;20052;-66
2022/06/01 09:37:23;;;;;;;0.00;0.00;;;13.50;78.00;;;;;;5028957;28;20063;-66
2022/06/01 09:40:03;;;;;;;0.00;0.00;;;13.50;78.10;;;;;;5028679;28;20071;-66
2022/06/01 09:42:41;;;;;;;0.00;0.00;;;13.50;78.20;;;;;;5029190;28;20605;-66
2022/06/01 09:45:26;;;;;;;0.00;0.00;;;13.60;78.70;;;;;;5028919;28;20081;-67
2022/06/01 09:47:53;;;;;;;0.00;0.00;;;13.60;78.90;;;;;;5016015;28;20049;-66
2022/06/01 09:50:26;;;;;;;0.00;0.00;;;13.70;78.90;;;;;;5009258;28;20057;-65
2022/06/01 09:53:17;;;;;;;0.10;0.10;;;13.80;79.00;;;;;;5009214;28;20514;-66
2022/06/01 09:56:00;;;;;;;0.00;0.00;;;13.90;78.90;;;;;;5009023;28;20462;-66
2022/06/01 10:07:06;;;;;;;;;;;14.10;78.90;;;;;;5033180;28;20041;-63
2022/06/01 10:09:34;;;;;;;0.00;0.00;;;14.10;79.20;;;;;;5040699;28;19924;-66
2022/06/01 10:12:23;;;;;;;0.00;0.00;;;14.20;79.00;;;;;;5040552;28;20037;-65
2022/06/01 10:14:54;;;;;;;0.00;0.00;;;14.30;78.50;;;;;;5036240;28;20508;-66
2022/06/01 10:17:28;;;;;;;0.00;0.00;;;14.40;78.30;;;;;;5040053;28;20072;-66
2022/06/01 10:20:20;;;;;;;0.00;0.00;;;14.40;78.00;;;;;;5037238;28;20053;-65
2022/06/01 10:22:51;;;;;;;;;;;14.50;78.20;;;;;;5044979;28;20048;-66
2022/06/01 10:25:22;;;;;;;0.00;0.00;;;14.60;78.00;;;;;;5036961;28;19979;-65
2022/06/01 10:27:56;;;;;;;0.00;0.00;;;14.60;77.90;;;;;;5038184;28;20050;-66
2022/06/01 10:30:36;;;;;;;0.00;0.00;;;14.70;77.50;;;;;;5028542;28;20139;-66
2022/06/01 10:33:09;;;;;;;0.00;0.00;;;14.70;76.90;;;;;;5029340;28;20053;-66
2022/06/01 10:35:50;;;;;;;0.00;0.00;;;14.70;77.10;;;;;;5028430;28;20482;-66
2022/06/01 10:38:25;;;;;;;0.00;0.00;;;14.80;76.20;;;;;;5026823;28;20049;-66
2022/06/01 10:41:20;;;;;;;0.00;0.00;;;14.80;76.20;;;;;;5031850;28;20064;-65
2022/06/01 10:44:16;;;;;;;0.00;0.00;;;14.80;75.70;;;;;;5019525;28;20140;-65
2022/06/01 10:46:50;;;;;;;0.00;0.00;;;14.90;74.40;;;;;;5040410;28;20072;-66
2022/06/01 10:49:37;;;;;;;0.00;0.00;;;14.80;74.90;;;;;;5022268;28;20045;-66
2022/06/01 10:52:18;;;;;;;0.00;0.00;;;14.70;75.00;;;;;;5031132;28;20400;-66
2022/06/01 10:54:50;;;;;;;0.00;0.00;;;14.60;75.60;;;;;;5021937;28;20516;-66
2022/06/01 10:57:19;;;;;;;0.00;0.00;;;14.40;75.90;;;;;;5051330;28;20130;-66
2022/06/01 10:59:47;;;;;;;0.00;0.00;;;14.10;76.30;;;;;;5040372;28;20049;-66
2022/06/01 11:02:28;;;;;;;0.00;0.00;;;13.70;78.20;;;;;;5030675;28;20506;-67
2022/06/01 11:05:09;;;;;;;0.00;0.00;;;13.40;79.00;;;;;;5031492;28;20050;-67
2022/06/01 11:07:49;;;;;;;0.00;0.00;;;13.10;79.00;;;;;;5010036;28;20180;-67
2022/06/01 11:10:30;;;;;;;0.00;0.00;;;12.80;78.60;;;;;;5011587;28;20104;-67
2022/06/01 11:13:04;;;;;;;0.00;0.00;;;12.50;78.30;;;;;;5028854;28;20038;-68
2022/06/01 11:15:54;;;;;;;0.00;0.00;;;12.30;78.50;;;;;;5029720;28;20050;-68
2022/06/01 11:18:48;;;;;;;0.00;0.00;;;12.30;78.70;;;;;;5030237;28;20052;-68
2022/06/01 11:21:28;;;;;;;0.00;0.00;;;12.20;79.00;;;;;;5017285;28;20060;-68
2022/06/01 11:24:08;;;;;;;0.00;0.00;;;12.20;79.70;;;;;;5020696;28;20045;-67
2022/06/01 11:26:40;;;;;;;0.00;0.00;;;12.30;80.10;;;;;;5029408;28;20049;-67
2022/06/01 11:29:30;;;;;;;0.05;0.05;;;12.30;80.00;;;;;;5030847;28;20490;-68
2022/06/01 11:32:01;;;;;;;0.05;0.05;;;12.40;80.40;;;;;;5031175;28;20099;-67
2022/06/01 11:34:39;;;;;;;0.00;0.00;;;12.40;80.10;;;;;;5042083;28;20081;-67
2022/06/01 11:37:22;;;;;;;0.05;0.05;;;12.50;80.70;;;;;;5027021;28;20054;-68
2022/06/01 11:40:04;;;;;;;0.00;0.00;;;12.60;80.90;;;;;;5030493;28;20045;-71
2022/06/01 11:42:40;;;;;;;0.00;0.00;;;12.90;81.40;;;;;;5036397;28;20053;-72
2022/06/01 11:45:08;;;;;;;0.00;0.00;;;13.10;82.10;;;;;;5022770;28;20048;-71
2022/06/01 11:47:55;;;;;;;0.00;0.00;;;13.30;81.30;;;;;;5046496;28;20048;-72
2022/06/01 11:50:43;;;;;;;0.00;0.00;;;13.50;81.50;;;;;;5030190;28;20084;-71
2022/06/01 11:53:18;;;;;;;0.00;0.00;;;13.70;81.50;;;;;;5030706;28;20079;-67
2022/06/01 11:55:46;;;;;;;0.00;0.00;;;13.90;81.00;;;;;;5033845;28;20394;-66
2022/06/01 11:58:37;;;;;;;0.00;0.00;;;14.10;79.00;;;;;;5024851;28;20583;-66
2022/06/01 12:01:31;;;;;;;0.10;0.10;;;14.20;78.80;;;;;;5026328;28;20049;-68
2022/06/01 12:04:19;;;;;;;0.00;0.00;;;14.30;79.10;;;;;;5026468;28;20053;-68
2022/06/01 12:06:54;;;;;;;0.00;0.00;;;14.40;78.90;;;;;;5025586;28;20406;-69
2022/06/01 12:09:48;;;;;;;0.00;0.00;;;14.30;77.60;;;;;;5025409;28;20053;-68
2022/06/01 12:12:44;;;;;;;0.00;0.00;;;14.40;77.70;;;;;;5027082;28;20049;-68
2022/06/01 12:15:29;;;;;;;0.00;0.00;;;14.60;77.20;;;;;;5028545;28;20087;-68
2022/06/01 12:18:19;;;;;;;0.00;0.00;;;14.70;77.30;;;;;;5026499;28;20042;-68
2022/06/01 12:20:48;;;;;;;0.00;0.00;;;14.90;76.80;;;;;;5028128;28;20057;-69
2022/06/01 12:29:08;;;;;;;0.00;0.00;;;15.60;75.60;;;;;;5028197;28;20469;-68
2022/06/01 12:31:59;;;;;;;0.00;0.00;;;15.70;75.00;;;;;;5028338;28;20046;-68
2022/06/01 12:34:28;;;;;;;0.00;0.00;;;15.80;73.00;;;;;;5024693;28;20065;-69
2022/06/01 12:37:10;;;;;;;0.00;0.00;;;15.80;70.90;;;;;;5035944;28;20064;-68
2022/06/01 12:39:39;;;;;;;0.00;0.00;;;16.00;71.40;;;;;;5029575;28;20045;-69
2022/06/01 12:42:20;;;;;;;0.00;0.00;;;16.00;70.40;;;;;;5029177;28;20037;-69
2022/06/01 12:44:50;;;;;;;0.10;0.10;;;16.00;71.10;;;;;;5021639;28;20052;-68
2022/06/01 12:47:35;;;;;;;0.00;0.00;;;15.90;71.10;;;;;;5024765;28;20053;-68
2022/06/01 12:50:16;;;;;;;0.00;0.00;;;15.80;70.70;;;;;;5026158;28;20045;-68
2022/06/01 12:52:42;;;;;;;0.00;0.00;;;15.70;69.50;;;;;;5032992;28;20046;-68
2022/06/01 12:55:11;;;;;;;0.00;0.00;;;15.60;68.50;;;;;;5022826;28;20491;-68
2022/06/01 12:57:41;;;;;;;0.10;0.10;;;15.70;69.60;;;;;;5028819;28;20413;-67
2022/06/01 13:00:19;;;;;;;0.00;0.00;;;15.80;70.50;;;;;;5023059;28;20042;-67
2022/06/01 13:02:45;;;;;;;0.00;0.00;;;16.00;69.30;;;;;;5029145;28;20524;-69
2022/06/01 13:05:23;;;;;;;0.00;0.00;;;16.30;66.40;;;;;;5028729;28;20091;-68
2022/06/01 13:07:53;;;;;;;0.00;0.00;;;16.30;64.20;;;;;;5011754;28;20053;-68
2022/06/01 13:10:26;;;;;;;0.28;0.28;;;16.30;62.10;;;;;;5025391;28;20413;-68
2022/06/01 13:13:09;;;;;;;0.00;0.00;;;16.60;65.80;;;;;;5026470;28;20554;-68
2022/06/01 13:15:36;;;;;;;0.00;0.00;;;16.60;64.60;;;;;;5019466;28;20490;-69
2022/06/01 13:18:05;;;;;;;0.00;0.00;;;16.50;63.30;;;;;;5027801;28;20045;-67
2022/06/01 13:20:48;;;;;;;0.08;0.08;;;16.40;62.30;;;;;;5011584;28;20103;-67
2022/06/01 13:23:29;;;;;;;0.00;0.00;;;16.40;63.00;;;;;;5029610;28;20038;-67
2022/06/01 13:25:58;;;;;;;0.00;0.00;;;16.30;61.70;;;;;;5028766;28;20085;-67
2022/06/01 13:28:25;;;;;;;0.00;0.00;;;16.40;63.60;;;;;;5028646;28;20053;-66
2022/06/01 13:30:51;;;;;;;0.00;0.00;;;16.20;63.60;;;;;;5028888;28;20120;-68
2022/06/01 13:33:38;;;;;;;0.00;0.00;;;16.00;64.80;;;;;;5028130;28;20410;-65
2022/06/01 13:36:07;;;;;;;0.45;0.45;;;16.00;65.60;;;;;;5022326;28;20767;-67
2022/06/01 13:38:45;;;;;;;0.00;0.00;;;16.00;66.50;;;;;;5027763;28;20041;-66
2022/06/01 13:41:50;;;;;;;0.00;0.00;;;15.80;65.70;;;;;;5027114;28;20402;-67
2022/06/01 13:44:54;;;;;;;0.00;0.00;;;15.80;67.50;;;;;;5018982;28;20085;-67
2022/06/01 13:47:30;;;;;;;0.00;0.00;;;15.70;65.00;;;;;;5028869;28;20046;-67
2022/06/01 13:50:08;;;;;;;0.00;0.00;;;15.70;65.40;;;;;;5025841;28;20490;-68